FW9531 Weather Reports


time (UTC)temp
F
wind
direction
speed
knots
gust
knots
rain 1hr
in
rain 24hr
in
rain mn
in
humidity
%
barometer
mb
20240418170850 51 210 6.1 7.8 0.00 0.00 0.00 50 1007.7
20240418170348 51 224 7.0 8.7 0.00 0.00 0.00 51 1007.6
20240418165846 50 230 5.2 6.1 0.00 0.00 0.00 49 1007.6
20240418165346 50 242 4.3 6.1 0.00 0.00 0.00 53 1007.8
20240418164844 50 221 2.6 5.2 0.00 0.00 0.00 55 1007.9
20240418164343 49 231 5.2 7.0 0.00 0.00 0.00 54 1007.9
20240418163842 48 232 5.2 7.8 0.00 0.00 0.00 56 1007.9
20240418163340 48 220 4.3 8.7 0.00 0.00 0.00 55 1008.1
20240418162838 48 212 6.1 7.8 0.00 0.00 0.00 56 1007.9
20240418162338 48 222 4.3 8.7 0.00 0.00 0.00 55 1008.1
20240418161837 49 212 3.5 6.1 0.00 0.00 0.00 54 1007.9
20240418161336 48 226 3.5 8.7 0.00 0.00 0.00 56 1008.0
20240418160834 48 227 3.5 6.1 0.00 0.00 0.00 56 1007.9
20240418160333 48 191 6.1 7.8 0.00 0.00 0.00 55 1008.2
20240418155832 48 247 4.3 7.0 0.00 0.00 0.00 56 1008.0
20240418155331 48 214 5.2 7.8 0.00 0.00 0.00 54 1008.1
20240418154830 48 233 2.6 5.2 0.00 0.00 0.00 57 1008.2
20240418154330 47 214 3.5 6.1 0.00 0.00 0.00 57 1008.1
20240418153830 47 267 6.1 8.7 0.00 0.00 0.00 59 1007.9
20240418153328 47 230 3.5 6.1 0.00 0.00 0.00 59 1008.2
20240418152826 46 238 4.3 7.8 0.00 0.00 0.00 61 1008.0
20240418152325 47 215 4.3 8.7 0.00 0.00 0.00 60 1008.1
20240418151824 46 238 4.3 7.0 0.00 0.00 0.00 59 1008.2
20240418151324 46 214 2.6 5.2 0.00 0.00 0.00 60 1008.0
20240418150822 46 223 2.6 6.1 0.00 0.00 0.00 60 1008.3
20240418150320 47 217 1.7 2.6 0.00 0.00 0.00 59 1007.9
20240418145819 46 206 4.3 7.0 0.00 0.00 0.00 62 1007.9
20240418145318 46 242 6.1 8.7 0.00 0.00 0.00 60 1008.0
20240418144817 46 234 3.5 5.2 0.00 0.00 0.00 63 1008.0
20240418144316 47 241 6.1 7.8 0.00 0.00 0.00 62 1007.8
20240418143815 46 225 2.6 7.8 0.00 0.00 0.00 64 1007.7
20240418143314 46 243 4.3 6.1 0.00 0.00 0.00 63 1008.0
20240418142812 45 227 6.1 7.8 0.00 0.00 0.00 67 1008.0
20240418142312 45 226 3.5 4.3 0.00 0.00 0.00 69 1008.0
20240418141810 44 223 0.9 1.7 0.00 0.00 0.00 72 1008.0
20240418141309 44 226 2.6 4.3 0.00 0.00 0.00 71 1007.9
20240418140808 44 249 4.3 7.0 0.00 0.00 0.00 70 1008.2
20240418140307 44 218 3.5 7.0 0.00 0.00 0.00 71 1008.1
20240418135806 44 220 0.9 2.6 0.00 0.00 0.00 74 1008.2
20240418135304 44 224 0.9 1.7 0.00 0.00 0.00 73 1008.2
20240418134804 43 224 1.7 4.3 0.00 0.00 0.00 75 1008.3
20240418134303 43 223 1.7 1.7 0.00 0.00 0.00 75 1008.0
20240418133802 43 224 2.6 2.6 0.00 0.00 0.00 75 1008.4
20240418133300 43 234 2.6 2.6 0.00 0.00 0.00 76 1008.4
20240418132759 43 225 0.9 1.7 0.00 0.00 0.00 76 1008.5
20240418132257 42 227 2.6 2.6 0.00 0.00 0.00 78 1008.5
20240418131756 42 226 0.9 1.7 0.00 0.00 0.00 79 1008.5
20240418131256 42 219 0.9 2.6 0.00 0.00 0.00 80 1008.5
20240418130755 42 229 1.7 4.3 0.00 0.00 0.00 79 1008.6
20240418130255 42 220 2.6 4.3 0.00 0.00 0.00 80 1008.6
20240418125754 42 222 1.7 1.7 0.00 0.00 0.00 82 1008.8
20240418125253 41 227 1.7 2.6 0.00 0.00 0.00 82 1008.6
20240418124753 41 225 1.7 2.6 0.00 0.00 0.00 82 1008.5
20240418124252 41 226 1.7 4.3 0.00 0.00 0.00 83 1008.4
20240418123752 41 222 1.7 2.6 0.00 0.00 0.00 84 1008.3
20240418123251 41 224 1.7 1.7 0.00 0.00 0.00 85 1008.2
20240418122751 41 224 0.9 1.7 0.00 0.00 0.00 86 1008.3
20240418122252 41 224 0.9 1.7 0.00 0.00 0.00 86 1008.3
20240418121750 41 224 0.9 1.7 0.00 0.00 0.00 87 1008.1
20240418121248 41 224 0.0 0.0 0.00 0.00 0.00 87 1008.0
20240418120748 40 224 0.9 0.9 0.00 0.00 0.00 87 1008.1
20240418120247 40 224 0.9 1.7 0.00 0.00 0.00 88 1008.0
20240418115747 40 223 0.0 0.0 0.00 0.00 0.00 89 1008.1
20240418115244 40 223 0.9 1.7 0.00 0.00 0.00 89 1007.9
20240418114743 40 223 1.7 1.7 0.00 0.00 0.00 89 1007.9
20240418114241 40 225 0.9 1.7 0.00 0.00 0.00 89 1008.2
20240418113740 40 223 0.9 1.7 0.00 0.00 0.00 89 1008.0
20240418113240 40 224 0.9 1.7 0.00 0.00 0.00 89 1007.8
20240418112740 40 223 0.9 1.7 0.00 0.00 0.00 89 1007.9
20240418112240 40 226 1.7 1.7 0.00 0.00 0.00 89 1007.8
20240418111740 40 229 1.7 2.6 0.00 0.00 0.00 90 1007.7
20240418111238 40 222 1.7 1.7 0.00 0.00 0.00 90 1007.7
20240418110738 40 222 0.9 1.7 0.00 0.00 0.00 90 1007.4
20240418110237 40 223 0.9 1.7 0.00 0.00 0.00 91 1007.4
20240418105734 40 222 0.0 1.7 0.00 0.00 0.00 91 1007.2
20240418105233 40 222 1.7 1.7 0.00 0.00 0.00 91 1007.1
20240418104733 40 224 1.7 1.7 0.00 0.00 0.00 90 1007.3
20240418104231 41 221 0.9 1.7 0.00 0.00 0.00 90 1006.9
20240418103730 40 221 1.7 1.7 0.00 0.00 0.00 90 1007.3
20240418103228 41 223 2.6 2.6 0.00 0.00 0.00 90 1007.1
20240418102728 41 222 1.7 1.7 0.00 0.00 0.00 90 1007.1
20240418102227 41 220 1.7 1.7 0.00 0.00 0.00 90 1007.2
20240418101726 41 223 1.7 2.6 0.00 0.00 0.00 90 1007.2
20240418101227 41 223 1.7 2.6 0.00 0.00 0.00 90 1007.3
20240418100725 41 219 0.9 0.9 0.00 0.00 0.00 90 1006.7
20240418100224 41 221 1.7 1.7 0.00 0.00 0.00 90 1006.9
20240418095723 41 221 2.6 2.6 0.00 0.00 0.00 89 1006.8
20240418095221 41 222 1.7 1.7 0.00 0.00 0.00 89 1006.7
20240418094721 41 222 1.7 1.7 0.00 0.00 0.00 90 1006.8
20240418094220 41 217 1.7 1.7 0.00 0.00 0.00 90 1006.7
20240418093720 41 221 0.0 0.0 0.00 0.00 0.00 91 1006.7
20240418093218 41 221 1.7 1.7 0.00 0.00 0.00 92 1006.7
20240418092717 41 222 0.9 1.7 0.00 0.00 0.00 93 1006.6
20240418092215 41 220 0.9 1.7 0.00 0.00 0.00 93 1006.5
20240418091714 41 212 0.0 0.0 0.00 0.00 0.00 94 1006.7
20240418091213 41 212 0.0 0.0 0.00 0.00 0.00 94 1006.6
20240418090711 41 212 0.0 0.9 0.00 0.00 0.00 94 1006.5
20240418090212 41 212 0.0 0.0 0.00 0.00 0.00 94 1006.7
20240418085710 41 212 0.9 0.9 0.00 0.00 0.00 94 1006.5
20240418085208 41 214 0.9 0.9 0.00 0.00 0.00 94 1006.6
20240418084707 41 216 0.0 0.0 0.00 0.00 0.00 93 1007.1
20240418084205 41 216 0.0 0.0 0.00 0.00 0.00 94 1006.9
20240418083704 41 218 0.0 0.0 0.00 0.00 0.00 94 1006.9
20240418083202 41 221 0.9 0.9 0.00 0.00 0.00 93 1006.9
20240418082700 41 221 0.9 1.7 0.00 0.00 0.00 94 1007.1
20240418082159 41 218 0.9 0.9 0.00 0.00 0.00 94 1007.1
20240418081658 41 218 0.9 0.9 0.00 0.00 0.00 94 1006.9
20240418081157 40 218 0.0 0.0 0.00 0.00 0.00 94 1006.7
20240418080656 40 219 0.9 1.7 0.00 0.00 0.00 94 1006.9
20240418080154 40 221 0.0 0.0 0.00 0.00 0.00 95 1006.8
20240418075652 39 222 0.0 0.0 0.00 0.00 0.00 97 1006.7
20240418075151 39 222 0.0 0.0 0.00 0.00 0.00 98 1006.5
20240418074650 38 222 0.0 0.0 0.00 0.00 0.00 98 1006.2
20240418074150 38 222 0.0 0.0 0.00 0.00 0.00 97 1006.1
20240418073649 38 222 0.0 0.0 0.00 0.00 0.00 97 1006.0
20240418073149 38 222 0.0 0.0 0.00 0.00 0.00 97 1005.9
20240418072648 38 222 0.0 0.0 0.00 0.00 0.00 96 1005.8
20240418072147 39 222 0.0 0.0 0.00 0.00 0.00 96 1006.1
20240418071646 39 222 0.0 0.0 0.00 0.00 0.00 96 1006.3
20240418071146 39 222 0.0 0.0 0.00 0.00 0.00 96 1006.3
20240418070645 38 222 0.0 0.0 0.00 0.00 0.00 95 1006.5
20240418070145 39 222 0.0 0.0 0.00 0.00 0.00 95 1006.1
20240418065644 39 222 0.0 0.0 0.00 0.00 0.00 96 1006.5
20240418065144 39 222 0.0 0.0 0.00 0.00 0.00 96 1006.4
20240418064643 39 222 0.0 0.0 0.00 0.00 0.00 95 1006.3
20240418064142 39 222 0.0 0.0 0.00 0.00 0.00 96 1006.0
20240418063641 40 222 0.0 0.0 0.00 0.00 0.00 95 1005.5
20240418063140 40 222 0.0 0.0 0.00 0.00 0.00 95 1005.6
20240418062636 40 222 0.0 0.0 0.00 0.00 0.00 93 1005.5
20240418062136 41 222 0.0 0.0 0.00 0.00 0.00 93 1006.0
20240418061636 41 222 0.0 0.9 0.00 0.00 0.00 93 1006.2
20240418061136 41 221 0.0 0.0 0.00 0.00 0.00 92 1006.3
20240418060635 41 221 0.0 0.0 0.00 0.00 0.00 93 1006.3
20240418060133 40 224 1.7 1.7 0.00 0.00 0.00 94 1006.4
20240418055633 41 221 0.0 0.0 0.00 0.00 0.00 93 1005.9
20240418055131 40 223 1.7 1.7 0.00 0.00 0.00 95 1006.5
20240418054630 39 222 0.0 0.0 0.00 0.00 0.00 95 1006.0
20240418054129 40 222 0.0 0.0 0.00 0.00 0.00 96 1006.1
20240418053628 40 221 0.0 0.0 0.00 0.00 0.00 95 1005.8
20240418053127 40 221 0.0 0.0 0.00 0.00 0.00 95 1005.5
20240418052627 41 222 0.0 0.0 0.00 0.00 0.00 94 1005.7
20240418052126 41 222 0.0 0.0 0.00 0.00 0.00 93 1005.7
20240418051625 41 222 0.0 0.0 0.00 0.00 0.00 93 1006.1
20240418051124 41 223 0.0 0.0 0.00 0.00 0.00 94 1006.2
20240418050623 41 222 0.0 0.0 0.00 0.00 0.00 96 1006.1
20240418050122 41 223 0.0 0.0 0.00 0.00 0.00 97 1006.3
20240418045622 40 222 0.0 0.0 0.00 0.53 0.53 98 1006.2
20240418045120 40 222 0.0 0.0 0.00 0.53 0.53 98 1006.2
20240418044619 40 222 0.0 0.0 0.00 0.53 0.53 97 1006.1
20240418044119 41 222 0.0 0.0 0.00 0.53 0.53 97 1005.7
20240418043618 41 222 0.0 0.0 0.00 0.53 0.53 96 1006.0
20240418043116 41 222 0.0 0.0 0.00 0.53 0.53 96 1005.7
20240418042615 42 222 0.0 0.0 0.00 0.53 0.53 95 1005.6
20240418042114 42 222 0.0 0.0 0.00 0.53 0.53 95 1005.5
20240418041612 43 222 0.0 0.0 0.00 0.53 0.53 95 1005.5
20240418041110 43 222 0.0 0.0 0.00 0.53 0.53 94 1005.3
20240418040609 44 222 0.0 0.0 0.00 0.53 0.53 93 1005.5
20240418040109 44 222 0.0 0.0 0.00 0.53 0.53 92 1005.6
20240418035608 45 222 0.0 0.0 0.00 0.53 0.53 91 1005.7
20240418035107 45 222 0.0 0.9 0.00 0.53 0.53 90 1005.6
20240418034606 45 221 0.0 0.0 0.00 0.53 0.53 90 1005.8
20240418034105 45 222 0.9 1.7 0.00 0.53 0.53 90 1005.7
20240418033605 45 219 0.9 1.7 0.00 0.53 0.53 91 1005.8
20240418033104 45 221 0.0 0.0 0.00 0.53 0.53 91 1005.8
20240418032604 45 221 0.9 0.9 0.00 0.53 0.53 91 1005.7
20240418032102 45 221 0.9 1.7 0.00 0.53 0.53 91 1005.6
20240418031601 45 220 0.9 1.7 0.00 0.53 0.53 90 1005.8
20240418031100 45 223 0.9 1.7 0.00 0.53 0.53 90 1005.9
20240418030559 45 221 0.9 1.7 0.00 0.53 0.53 90 1005.7
20240418030058 45 224 1.7 1.7 0.00 0.53 0.53 90 1005.6
20240418025557 45 224 1.7 1.7 0.00 0.53 0.53 91 1005.6
20240418025055 45 223 0.0 0.9 0.00 0.53 0.53 92 1005.8
20240418024554 45 223 0.9 1.7 0.00 0.53 0.53 92 1005.6
20240418024053 45 220 0.0 0.0 0.00 0.53 0.53 92 1005.5
20240418023552 45 223 0.0 0.0 0.00 0.53 0.53 91 1005.2
20240418023051 45 223 0.0 0.0 0.00 0.53 0.53 91 1004.9
20240418022550 45 222 0.0 0.0 0.00 0.53 0.53 91 1004.9
20240418022048 45 222 0.0 0.0 0.00 0.53 0.53 91 1004.8
20240418021546 45 223 0.0 0.0 0.00 0.53 0.53 91 1004.8
20240418021045 45 223 0.0 0.0 0.00 0.53 0.53 91 1004.7
20240418020545 45 223 0.0 0.0 0.00 0.53 0.53 91 1004.6
20240418020043 45 223 0.0 0.0 0.00 0.53 0.53 91 1004.5
20240418015542 45 222 0.0 0.0 0.00 0.53 0.53 91 1004.4
20240418015041 45 222 0.0 0.0 0.00 0.53 0.53 91 1004.5
20240418014539 45 222 0.0 0.9 0.00 0.53 0.53 91 1004.2
20240418014038 45 222 0.0 0.9 0.00 0.53 0.53 91 1004.2
20240418013537 45 221 0.9 1.7 0.00 0.53 0.53 90 1004.2
20240418013035 45 224 0.9 1.7 0.00 0.53 0.53 90 1004.1
20240418012534 45 223 0.9 1.7 0.00 0.53 0.53 90 1003.6
20240418012033 45 224 0.9 0.9 0.00 0.53 0.53 90 1003.8
20240418011531 45 223 0.0 0.9 0.00 0.53 0.53 90 1003.9
20240418011029 45 219 0.9 1.7 0.00 0.53 0.53 90 1003.7
20240418010529 45 226 2.6 2.6 0.00 0.53 0.53 90 1003.7
20240418010027 45 218 1.7 1.7 0.00 0.53 0.53 90 1003.3
20240418005526 45 220 0.9 1.7 0.00 0.53 0.53 90 1003.6
20240418005025 45 223 1.7 1.7 0.00 0.53 0.53 90 1003.3
20240418004525 45 221 0.9 1.7 0.00 0.53 0.53 90 1003.1
20240418004024 45 221 0.9 1.7 0.00 0.53 0.53 90 1003.1
20240418003523 45 222 0.9 0.9 0.00 0.53 0.53 90 1002.8
20240418003024 46 221 1.7 1.7 0.00 0.53 0.53 90 1003.1
20240418002521 46 222 0.9 1.7 0.00 0.53 0.53 90 1002.9
20240418002021 46 220 1.7 1.7 0.00 0.53 0.53 89 1002.8
20240418001520 46 219 1.7 1.7 0.00 0.53 0.53 89 1002.8
20240418001020 46 218 1.7 2.6 0.00 0.53 0.53 89 1002.7
20240418000519 46 220 1.7 1.7 0.00 0.53 0.53 89 1002.5
20240418000017 46 218 1.7 2.6 0.00 0.53 0.53 89 1002.6
20240417235516 46 232 3.5 4.3 0.00 0.53 0.53 89 1002.4
20240417235016 46 216 3.5 4.3 0.00 0.53 0.53 89 1002.5
20240417234515 46 217 3.5 4.3 0.00 0.53 0.53 89 1002.5
20240417234014 46 257 2.6 5.2 0.00 0.53 0.53 89 1002.5
20240417233512 46 216 2.6 5.2 0.00 0.53 0.53 89 1002.2
20240417233010 45 222 1.7 2.6 0.00 0.53 0.53 90 1002.0
20240417232510 45 238 2.6 4.3 0.00 0.53 0.53 90 1002.0
20240417232010 45 223 1.7 4.3 0.00 0.53 0.53 90 1001.9
20240417231508 45 223 2.6 5.2 0.00 0.53 0.53 89 1001.8
20240417231007 45 220 1.7 2.6 0.00 0.53 0.53 90 1001.7
20240417230507 45 218 2.6 2.6 0.00 0.53 0.53 90 1001.9
20240417230006 45 222 1.7 4.3 0.00 0.53 0.53 90 1001.6
20240417225504 45 226 2.6 4.3 0.00 0.53 0.53 90 1001.6
20240417225003 45 224 2.6 5.2 0.00 0.53 0.53 90 1001.4
20240417224502 45 245 4.3 5.2 0.00 0.53 0.53 90 1001.2
20240417223959 45 244 4.3 6.1 0.00 0.53 0.53 90 1001.2
20240417223458 45 252 3.5 4.3 0.00 0.53 0.53 90 1001.1
20240417222956 45 268 3.5 7.0 0.00 0.53 0.53 91 1001.0
20240417222454 44 245 5.2 6.1 0.00 0.53 0.53 91 1001.0
20240417221954 44 216 4.3 4.3 0.00 0.53 0.53 92 1000.9
20240417221452 44 220 2.6 6.1 0.00 0.53 0.53 92 1000.8
20240417220952 44 231 4.3 7.0 0.00 0.53 0.53 92 1000.8
20240417220451 44 227 3.5 6.1 0.00 0.53 0.53 92 1000.8
20240417215949 45 218 3.5 5.2 0.00 0.53 0.53 91 1000.4
20240417215448 45 267 4.3 6.1 0.00 0.53 0.53 90 999.8
20240417214947 45 288 5.2 7.8 0.00 0.53 0.53 90 999.9
20240417214446 45 250 4.3 6.1 0.00 0.53 0.53 90 999.7
20240417213945 44 222 3.5 7.8 0.00 0.53 0.53 91 999.8
20240417213445 44 306 6.1 8.7 0.00 0.53 0.53 90 999.7
20240417212944 44 235 6.1 8.7 0.00 0.53 0.53 90 999.4
20240417212443 44 238 4.3 6.1 0.00 0.53 0.53 91 999.5
20240417211942 44 203 4.3 7.8 0.00 0.53 0.53 92 999.3
20240417211441 44 215 4.3 4.3 0.00 0.53 0.53 93 999.3
20240417210940 44 232 3.5 6.1 0.00 0.53 0.53 96 999.2
20240417210438 44 229 2.6 6.1 0.00 0.53 0.53 97 999.0
20240417205937 43 243 2.6 2.6 0.00 0.53 0.53 98 999.3
20240417205436 43 220 2.6 2.6 0.00 0.53 0.53 98 999.2
20240417204934 43 224 2.6 2.6 0.00 0.53 0.53 98 999.0
20240417204433 43 231 2.6 2.6 0.00 0.53 0.53 98 998.9
20240417203932 42 228 1.7 2.6 0.00 0.53 0.53 98 998.7
20240417203431 42 232 2.6 4.3 0.00 0.53 0.53 98 998.8
20240417202930 42 216 3.5 4.3 0.00 0.53 0.53 98 998.7
20240417202428 42 214 3.5 4.3 0.00 0.53 0.53 98 998.7
20240417201926 42 206 4.3 5.2 0.00 0.53 0.53 98 998.8
20240417201426 42 233 2.6 4.3 0.00 0.53 0.53 98 998.5
20240417200925 42 231 3.5 5.2 0.00 0.53 0.53 97 998.8
20240417200423 42 230 2.6 4.3 0.00 0.53 0.53 98 998.7
20240417195922 42 219 2.6 4.3 0.00 0.53 0.53 97 998.5
20240417195421 42 298 5.2 7.0 0.00 0.53 0.53 96 998.5
20240417194921 42 221 2.6 2.6 0.00 0.53 0.53 95 998.7
20240417194419 42 271 2.6 4.3 0.00 0.53 0.53 95 998.6
20240417193919 42 238 2.6 4.3 0.00 0.53 0.53 94 998.5
20240417193418 42 263 5.2 7.0 0.00 0.53 0.53 95 998.5
20240417192916 42 228 2.6 5.2 0.00 0.53 0.53 94 998.5
20240417192416 42 231 3.5 5.2 0.00 0.53 0.53 95 998.3
20240417191914 41 255 3.5 11.3 0.00 0.53 0.53 94 998.2
20240417191414 41 259 4.3 9.6 0.00 0.53 0.53 95 997.7
20240417190913 41 238 4.3 8.7 0.00 0.53 0.53 96 997.6
20240417190411 41 268 5.2 7.0 0.00 0.53 0.53 97 997.6
20240417185909 41 259 6.1 8.7 0.00 0.53 0.53 97 997.4
20240417185410 41 228 7.8 8.7 0.00 0.53 0.53 97 997.3
20240417184908 40 333 5.2 5.2 0.00 0.53 0.53 97 997.1
20240417184406 40 283 6.1 7.8 0.00 0.53 0.53 97 996.9
20240417183905 40 257 3.5 8.7 0.00 0.53 0.53 98 996.6
20240417183404 41 238 5.2 7.8 0.00 0.53 0.53 98 997.0
20240417182902 41 220 5.2 7.0 0.00 0.53 0.53 98 996.6
20240417182402 41 259 5.2 7.8 0.00 0.53 0.53 98 996.5
20240417181900 41 251 4.3 7.8 0.00 0.53 0.53 98 996.5
20240417181358 41 262 5.2 7.8 0.00 0.53 0.53 99 996.3
20240417180858 41 285 6.1 7.0 0.00 0.53 0.53 99 996.2
20240417180357 41 281 6.1 7.0 0.00 0.53 0.53 99 995.9
20240417175856 41 259 4.3 7.8 0.00 0.53 0.53 99 995.8
20240417175355 41 304 4.3 7.0 0.00 0.53 0.53 99 995.6
20240417174854 42 253 4.3 6.1 0.00 0.53 0.53 99 995.5
20240417174353 42 226 5.2 6.1 0.00 0.53 0.53 99 995.4
20240417173852 42 278 5.2 6.1 0.00 0.53 0.53 99 995.0
20240417173350 42 234 3.5 4.3 0.00 0.53 0.53 99 995.2
20240417172850 42 242 3.5 7.0 0.00 0.53 0.53 99 995.2
20240417172349 42 258 3.5 7.8 0.00 0.53 0.53 99 994.9
20240417171848 42 234 6.1 7.0 0.00 0.53 0.53 99 995.0
20240417171348 42 248 4.3 5.2 0.00 0.53 0.53 99 994.8